Time;durP1;ratioP1;P1;durP2;ratioP2;P2;SDS_P1;SDS_P2;PMS_P1;PMS_P2;Temp;Humidity;BMP_temperature;BMP_pressure;BME280_temperature;BME280_humidity;BME280_pressure;Samples;Min_cycle;Max_cycle;Signal;HPM_P1;HPM_P2
2021/09/13 00:01:49;;;;;;;2.47;0.50;;;;;20.60;100154.00;;;;4836093;29;20074;-76
2021/09/13 00:04:18;;;;;;;210.32;76.93;;;;;20.60;100154.00;;;;4835852;29;20065;-77
2021/09/13 00:06:48;;;;;;;2.78;2.10;;;;;20.50;100186.00;;;;4835614;29;20433;-76
2021/09/13 00:09:17;;;;;;;92.65;21.13;;;;;20.50;100146.00;;;;4835582;29;20069;-76
2021/09/13 00:11:45;;;;;;;1999.90;999.90;;;;;20.40;100162.00;;;;4835687;29;20046;-76
2021/09/13 00:14:14;;;;;;;207.88;15.90;;;;;20.30;100156.00;;;;4835355;29;20561;-75
2021/09/13 00:16:44;;;;;;;7.57;3.78;;;;;20.30;100148.00;;;;4835514;29;20052;-78
2021/09/13 00:19:13;;;;;;;6.95;4.05;;;;;20.40;100148.00;;;;4835581;29;20056;-78
2021/09/13 00:21:43;;;;;;;11.50;3.92;;;;;20.40;100179.00;;;;4834583;29;20068;-78
2021/09/13 00:24:12;;;;;;;4.40;3.80;;;;;20.40;100144.00;;;;4834676;29;20133;-77
2021/09/13 00:26:41;;;;;;;6.55;2.63;;;;;20.40;100172.00;;;;4835077;29;20418;-78
2021/09/13 00:29:10;;;;;;;5.35;2.22;;;;;20.40;100156.00;;;;4835116;29;20061;-78
2021/09/13 00:31:39;;;;;;;11.25;3.15;;;;;20.40;100137.00;;;;4835697;29;20440;-77
2021/09/13 00:34:08;;;;;;;46.72;34.80;;;;;20.40;100166.00;;;;4835434;29;20050;-77
2021/09/13 00:36:36;;;;;;;1.45;1.20;;;;;20.50;100159.00;;;;4835541;29;20058;-78
2021/09/13 00:39:05;;;;;;;1156.35;532.55;;;;;20.40;100168.00;;;;4835215;29;20052;-77
2021/09/13 00:41:34;;;;;;;3.38;2.90;;;;;20.30;100165.00;;;;4835103;29;20056;-75
2021/09/13 00:44:04;;;;;;;31.33;28.42;;;;;20.20;100134.00;;;;4834872;29;20598;-77
2021/09/13 00:46:32;;;;;;;4.18;2.50;;;;;20.20;100135.00;;;;4834577;29;20054;-75
2021/09/13 00:49:02;;;;;;;87.22;71.65;;;;;20.20;100124.00;;;;4835224;29;20062;-77
2021/09/13 00:51:31;;;;;;;20.27;18.38;;;;;20.20;100128.00;;;;4835591;29;20061;-76
2021/09/13 00:53:59;;;;;;;2.67;2.58;;;;;20.20;100130.00;;;;4836142;29;20058;-77
2021/09/13 00:56:29;;;;;;;6.82;2.88;;;;;20.30;100125.00;;;;4838520;29;20050;-77
2021/09/13 00:58:57;;;;;;;1999.90;999.90;;;;;20.30;100143.00;;;;4838312;29;20501;-78
2021/09/13 01:01:26;;;;;;;92.72;53.03;;;;;20.30;100116.00;;;;4838261;29;20577;-77
2021/09/13 01:03:56;;;;;;;543.70;267.63;;;;;20.30;100133.00;;;;4836443;29;20141;-77
2021/09/13 01:06:25;;;;;;;126.30;50.65;;;;;20.40;100122.00;;;;4837963;29;20054;-77
2021/09/13 01:08:54;;;;;;;187.02;43.33;;;;;20.40;100129.00;;;;4836032;29;20110;-77
2021/09/13 01:11:23;;;;;;;12.75;7.82;;;;;20.20;100130.00;;;;4837728;29;20057;-77
2021/09/13 01:13:52;;;;;;;18.88;16.95;;;;;20.10;100136.00;;;;4837868;29;20434;-77
2021/09/13 01:16:21;;;;;;;27.05;24.58;;;;;20.10;100123.00;;;;4838296;29;20162;-76
2021/09/13 01:18:50;;;;;;;149.77;87.85;;;;;20.00;100103.00;;;;4837752;29;20069;-77
2021/09/13 01:21:19;;;;;;;0.45;0.35;;;;;20.00;100116.00;;;;4838554;29;20049;-75
2021/09/13 01:23:48;;;;;;;12.82;6.15;;;;;20.00;100121.00;;;;4837798;29;20445;-77
2021/09/13 01:26:17;;;;;;;6.03;5.53;;;;;20.00;100098.00;;;;4837591;29;20050;-77
2021/09/13 01:28:46;;;;;;;248.75;44.42;;;;;19.90;100110.00;;;;4837573;29;20049;-76
2021/09/13 01:31:14;;;;;;;14.38;13.13;;;;;19.80;100095.00;;;;4835668;29;20058;-77
2021/09/13 01:33:44;;;;;;;12.20;6.90;;;;;19.80;100108.00;;;;4836910;29;20058;-76
2021/09/13 01:36:13;;;;;;;1.00;0.70;;;;;19.80;100100.00;;;;4837273;29;20470;-75
2021/09/13 01:38:42;;;;;;;34.88;31.60;;;;;19.80;100097.00;;;;4836384;29;20053;-76
2021/09/13 01:41:11;;;;;;;8.57;4.70;;;;;19.70;100078.00;;;;4837335;29;20050;-77
2021/09/13 01:43:40;;;;;;;629.63;137.25;;;;;19.80;100077.00;;;;4838043;29;20088;-77
2021/09/13 01:46:09;;;;;;;4.10;3.70;;;;;19.80;100074.00;;;;4837550;29;20053;-76
2021/09/13 01:48:39;;;;;;;2.10;1.55;;;;;19.90;100078.00;;;;4837479;29;20054;-77
2021/09/13 01:51:08;;;;;;;301.25;116.50;;;;;19.80;100056.00;;;;4837957;29;20050;-76
2021/09/13 01:53:37;;;;;;;199.45;143.20;;;;;19.80;100065.00;;;;4838399;29;20050;-78
2021/09/13 01:56:06;;;;;;;70.75;22.08;;;;;19.60;100066.00;;;;4837792;29;20080;-77
2021/09/13 01:58:35;;;;;;;113.82;29.63;;;;;19.60;100031.00;;;;4837589;29;20054;-77
2021/09/13 02:01:04;;;;;;;65.65;50.22;;;;;19.50;100030.00;;;;4838001;29;20088;-76
2021/09/13 02:03:33;;;;;;;6.60;4.45;;;;;19.50;100019.00;;;;4836293;29;20581;-77
2021/09/13 02:06:02;;;;;;;228.85;163.32;;;;;19.40;100005.00;;;;4836645;29;20065;-77
2021/09/13 02:08:31;;;;;;;8.30;6.70;;;;;19.40;100020.00;;;;4837968;29;20061;-77
2021/09/13 02:11:01;;;;;;;6.55;5.90;;;;;19.40;100012.00;;;;4837126;29;20097;-75
2021/09/13 02:13:30;;;;;;;4.97;3.63;;;;;19.40;99997.00;;;;4837940;29;20060;-77
2021/09/13 02:15:59;;;;;;;12.40;11.07;;;;;19.40;100005.00;;;;4838086;29;20058;-78
2021/09/13 02:18:28;;;;;;;3.80;3.20;;;;;19.40;100011.00;;;;4837605;29;20133;-77
2021/09/13 02:20:57;;;;;;;7.80;5.50;;;;;19.40;99978.00;;;;4837575;29;20604;-77
2021/09/13 02:23:26;;;;;;;7.07;4.93;;;;;19.40;99981.00;;;;4837995;29;20060;-76
2021/09/13 02:25:55;;;;;;;192.40;170.88;;;;;19.30;99988.00;;;;4837641;29;20521;-77
2021/09/13 02:28:23;;;;;;;335.00;152.95;;;;;19.30;99975.00;;;;4837553;29;20054;-78
2021/09/13 02:30:52;;;;;;;888.08;335.45;;;;;19.30;99953.00;;;;4837410;29;20054;-76
2021/09/13 02:33:21;;;;;;;20.08;5.78;;;;;19.30;99971.00;;;;4837594;29;20053;-76
2021/09/13 02:35:50;;;;;;;128.48;99.10;;;;;19.40;99975.00;;;;4837294;29;20061;-75
2021/09/13 02:38:19;;;;;;;23.05;20.70;;;;;19.30;99960.00;;;;4837265;29;20089;-76
2021/09/13 02:40:48;;;;;;;62.00;56.97;;;;;19.30;99968.00;;;;4837426;29;20080;-75
2021/09/13 02:43:17;;;;;;;9.05;5.50;;;;;19.30;99976.00;;;;4836940;29;20054;-76
2021/09/13 02:45:46;;;;;;;158.80;80.55;;;;;19.30;99945.00;;;;4837275;29;20056;-76
2021/09/13 02:48:15;;;;;;;7.57;5.82;;;;;19.30;99956.00;;;;4837465;29;20066;-77
2021/09/13 02:50:44;;;;;;;9.85;7.28;;;;;19.30;99946.00;;;;4837001;29;20046;-75
2021/09/13 02:53:13;;;;;;;10.27;6.45;;;;;19.30;99927.00;;;;4837110;29;20057;-76
2021/09/13 02:55:42;;;;;;;5.10;4.60;;;;;19.30;99959.00;;;;4837343;29;20057;-77
2021/09/13 02:58:11;;;;;;;62.05;13.82;;;;;19.20;99932.00;;;;4837085;29;20080;-77
2021/09/13 03:00:40;;;;;;;15.43;13.60;;;;;19.10;99944.00;;;;4836707;29;20609;-77
2021/09/13 03:03:09;;;;;;;213.68;122.82;;;;;19.10;99940.00;;;;4835731;29;20061;-76
2021/09/13 03:05:38;;;;;;;6.55;2.85;;;;;19.00;99921.00;;;;4836335;29;20137;-77
2021/09/13 03:08:07;;;;;;;11.77;9.10;;;;;19.00;99889.00;;;;4836469;29;20057;-77
2021/09/13 03:10:36;;;;;;;225.55;157.48;;;;;19.00;99892.00;;;;4836633;29;20114;-77
2021/09/13 03:13:06;;;;;;;138.35;110.85;;;;;18.90;99905.00;;;;4836651;29;20054;-77
2021/09/13 03:15:35;;;;;;;7.50;4.60;;;;;18.90;99894.00;;;;4836434;29;20704;-77
2021/09/13 03:18:04;;;;;;;73.95;40.90;;;;;18.90;99903.00;;;;4836786;29;20433;-77
2021/09/13 03:20:33;;;;;;;3.83;3.53;;;;;18.90;99879.00;;;;4837209;29;20054;-76
2021/09/13 03:23:02;;;;;;;11.07;7.43;;;;;18.90;99880.00;;;;4836325;29;20638;-76
2021/09/13 03:25:31;;;;;;;314.38;52.65;;;;;18.80;99886.00;;;;4836418;29;20054;-76
2021/09/13 03:28:00;;;;;;;6.18;5.57;;;;;18.70;99884.00;;;;4836660;29;20054;-76
2021/09/13 03:30:29;;;;;;;2.85;2.00;;;;;18.70;99872.00;;;;4836857;29;20058;-76
2021/09/13 03:32:58;;;;;;;73.50;33.95;;;;;18.70;99872.00;;;;4836559;29;20054;-77
2021/09/13 03:35:27;;;;;;;159.07;73.78;;;;;18.70;99883.00;;;;4836040;29;20054;-77
2021/09/13 03:37:56;;;;;;;181.88;94.15;;;;;18.70;99898.00;;;;4836305;29;20054;-77
2021/09/13 03:40:25;;;;;;;428.85;54.38;;;;;18.70;99896.00;;;;4836198;29;20054;-77
2021/09/13 03:42:54;;;;;;;90.88;78.18;;;;;18.60;99888.00;;;;4836802;29;20053;-77
2021/09/13 03:45:23;;;;;;;43.05;22.58;;;;;18.60;99888.00;;;;4836645;29;20057;-76
2021/09/13 03:47:52;;;;;;;175.00;149.48;;;;;18.50;99870.00;;;;4835701;29;20061;-78
2021/09/13 03:50:21;;;;;;;114.78;96.55;;;;;18.60;99869.00;;;;4836106;29;20062;-78
2021/09/13 03:52:49;;;;;;;4.28;4.03;;;;;18.60;99881.00;;;;4836161;29;20419;-77
2021/09/13 03:55:19;;;;;;;6.65;5.82;;;;;18.70;99867.00;;;;4835088;29;20050;-77
2021/09/13 03:57:48;;;;;;;20.15;18.58;;;;;18.70;99872.00;;;;4836049;29;20050;-76
2021/09/13 04:00:17;;;;;;;49.28;45.58;;;;;18.70;99891.00;;;;4835737;29;20089;-77
2021/09/13 04:02:48;;;;;;;47.35;40.45;;;;;18.70;99881.00;;;;4836331;29;20137;-79
2021/09/13 04:05:22;;;;;;;58.08;46.08;;;;;18.70;99865.00;;;;4834638;29;20046;-77
2021/09/13 04:12:53;;;;;;;11.60;9.27;;;;;18.90;99877.00;;;;4835523;29;20062;-77
2021/09/13 04:15:22;;;;;;;0.10;0.10;;;;;19.00;99849.00;;;;4836357;29;20061;-78
2021/09/13 04:17:51;;;;;;;4.05;3.75;;;;;18.90;99876.00;;;;4835813;29;20074;-77
2021/09/13 04:20:20;;;;;;;2.13;2.03;;;;;19.00;99879.00;;;;4836125;29;20616;-78
2021/09/13 04:22:49;;;;;;;121.47;13.88;;;;;19.20;99868.00;;;;4836149;29;20510;-78
2021/09/13 04:25:18;;;;;;;5.28;4.05;;;;;19.20;99840.00;;;;4834966;29;20061;-76
2021/09/13 04:27:47;;;;;;;230.05;29.95;;;;;19.20;99874.00;;;;4835846;29;20422;-77
2021/09/13 04:30:16;;;;;;;7.68;6.88;;;;;19.30;99845.00;;;;4838791;29;20085;-77
2021/09/13 04:32:45;;;;;;;7.38;6.28;;;;;19.30;99867.00;;;;4839901;29;20141;-78
2021/09/13 04:35:14;;;;;;;0.73;0.73;;;;;19.40;99870.00;;;;4839428;29;20054;-76
2021/09/13 04:37:43;;;;;;;4.47;3.75;;;;;19.40;99868.00;;;;4839443;29;20066;-78
2021/09/13 04:40:15;;;;;;;1.38;1.27;;;;;19.40;99866.00;;;;4839494;29;20108;-77
2021/09/13 04:42:44;;;;;;;2.75;1.38;;;;;19.40;99854.00;;;;4839358;29;20517;-77
2021/09/13 04:45:13;;;;;;;15.02;13.52;;;;;19.50;99850.00;;;;4839118;29;20062;-77
2021/09/13 04:47:42;;;;;;;386.88;169.35;;;;;19.50;99841.00;;;;4839452;29;20054;-78
2021/09/13 04:50:11;;;;;;;300.00;126.55;;;;;19.50;99829.00;;;;4839576;29;20057;-77
2021/09/13 04:52:39;;;;;;;1120.97;534.42;;;;;19.50;99855.00;;;;4838949;29;20058;-77
2021/09/13 04:55:09;;;;;;;173.48;75.43;;;;;19.40;99842.00;;;;4839471;29;20061;-76
2021/09/13 04:57:38;;;;;;;196.82;142.57;;;;;19.30;99864.00;;;;4839064;29;20077;-76
2021/09/13 05:00:07;;;;;;;74.25;48.38;;;;;19.30;99862.00;;;;4839064;29;20061;-77
2021/09/13 05:02:36;;;;;;;47.83;27.17;;;;;19.50;99851.00;;;;4838798;29;20054;-76
2021/09/13 05:05:06;;;;;;;14.35;12.85;;;;;19.50;99850.00;;;;4838685;29;20134;-77
2021/09/13 05:07:35;;;;;;;18.25;5.07;;;;;19.40;99846.00;;;;4837821;29;20434;-76
2021/09/13 05:10:04;;;;;;;503.73;92.85;;;;;19.50;99859.00;;;;4838609;29;20049;-77
2021/09/13 05:12:33;;;;;;;9.93;7.68;;;;;19.60;99836.00;;;;4841403;29;20054;-78
2021/09/13 05:15:02;;;;;;;8.98;8.00;;;;;19.60;99841.00;;;;4843214;29;20054;-77
2021/09/13 05:17:31;;;;;;;6.65;4.25;;;;;19.60;99835.00;;;;4843867;29;20064;-77
2021/09/13 05:20:00;;;;;;;8.60;7.38;;;;;19.60;99808.00;;;;4844477;29;20062;-77
2021/09/13 05:22:29;;;;;;;13.55;5.15;;;;;19.50;99819.00;;;;4844100;29;20061;-77
2021/09/13 05:24:58;;;;;;;7.13;6.43;;;;;19.60;99803.00;;;;4839411;29;20177;-77
2021/09/13 05:27:27;;;;;;;11.32;6.72;;;;;19.60;99808.00;;;;4838684;29;20434;-77
2021/09/13 05:29:56;;;;;;;13.00;7.65;;;;;19.50;99819.00;;;;4838666;29;20077;-77
2021/09/13 05:32:25;;;;;;;8.20;7.38;;;;;19.50;99775.00;;;;4839042;29;20065;-78
2021/09/13 05:34:54;;;;;;;12.25;6.95;;;;;19.40;99818.00;;;;4838634;29;20054;-77
2021/09/13 05:37:23;;;;;;;8.88;7.95;;;;;19.50;99809.00;;;;4838628;29;20058;-78
2021/09/13 05:39:52;;;;;;;19.08;17.33;;;;;19.70;99825.00;;;;4837957;29;20056;-77
2021/09/13 05:42:21;;;;;;;2.40;2.17;;;;;19.60;99801.00;;;;4837558;29;20069;-78
2021/09/13 05:44:50;;;;;;;7.65;6.28;;;;;19.60;99805.00;;;;4838732;29;20057;-76
2021/09/13 05:47:19;;;;;;;1.55;1.45;;;;;19.60;99786.00;;;;4839362;29;20054;-78
2021/09/13 05:49:48;;;;;;;0.43;0.22;;;;;19.50;99788.00;;;;4838697;29;20057;-76
2021/09/13 05:52:18;;;;;;;0.40;0.40;;;;;19.40;99762.00;;;;4836905;29;20486;-77
2021/09/13 05:54:47;;;;;;;7.72;7.03;;;;;19.40;99795.00;;;;4838366;29;20058;-77
2021/09/13 05:57:17;;;;;;;6.53;5.93;;;;;19.40;99773.00;;;;4838272;29;20061;-76
2021/09/13 05:59:45;;;;;;;4.82;3.88;;;;;19.50;99773.00;;;;4837971;29;20057;-77
2021/09/13 06:02:16;;;;;;;255.05;155.95;;;;;19.50;99800.00;;;;4838209;29;20046;-76
2021/09/13 06:04:46;;;;;;;10.57;9.25;;;;;19.40;99787.00;;;;4836741;29;20127;-78
2021/09/13 06:07:19;;;;;;;3.80;3.20;;;;;19.40;99765.00;;;;4835977;29;20061;-77
2021/09/13 06:09:48;;;;;;;5.10;3.25;;;;;19.30;99764.00;;;;4838176;29;20052;-77
2021/09/13 06:12:17;;;;;;;5.15;2.83;;;;;19.40;99789.00;;;;4836875;29;20050;-76
2021/09/13 06:14:46;;;;;;;2.67;2.08;;;;;19.40;99762.00;;;;4837967;29;20053;-78
2021/09/13 06:17:15;;;;;;;2.40;2.10;;;;;19.50;99771.00;;;;4837632;29;20096;-78
2021/09/13 06:19:46;;;;;;;1.92;1.67;;;;;19.30;99779.00;;;;4837450;29;20141;-76
2021/09/13 06:22:15;;;;;;;246.85;104.03;;;;;19.20;99773.00;;;;4837671;29;20058;-77
2021/09/13 06:24:44;;;;;;;304.55;98.88;;;;;19.20;99787.00;;;;4837675;29;20073;-77
2021/09/13 06:27:13;;;;;;;1131.20;554.88;;;;;19.20;99775.00;;;;4838001;29;20549;-79
2021/09/13 06:29:42;;;;;;;20.85;18.83;;;;;19.20;99783.00;;;;4838358;29;20065;-76
2021/09/13 06:32:11;;;;;;;21.52;20.02;;;;;19.10;99767.00;;;;4836599;29;20058;-78
2021/09/13 06:34:41;;;;;;;0.77;0.77;;;;;19.10;99771.00;;;;4837056;29;20058;-78
2021/09/13 06:37:10;;;;;;;8.57;7.75;;;;;19.30;99753.00;;;;4837597;29;20140;-78
2021/09/13 06:39:39;;;;;;;7.82;3.65;;;;;19.20;99760.00;;;;4837604;29;20058;-77
2021/09/13 06:42:08;;;;;;;3.13;2.92;;;;;19.10;99746.00;;;;4837676;29;20046;-77
2021/09/13 06:44:38;;;;;;;2.10;1.75;;;;;19.10;99760.00;;;;4837854;29;20138;-77
2021/09/13 06:47:08;;;;;;;4.00;2.95;;;;;19.10;99767.00;;;;4837340;29;20077;-77
2021/09/13 06:49:37;;;;;;;0.50;0.50;;;;;19.20;99728.00;;;;4838013;29;20403;-77
2021/09/13 06:52:06;;;;;;;7.60;5.07;;;;;19.30;99734.00;;;;4835249;29;20065;-78
2021/09/13 06:54:35;;;;;;;0.40;0.38;;;;;19.40;99751.00;;;;4836836;29;20057;-78
2021/09/13 06:57:04;;;;;;;105.15;43.90;;;;;19.40;99737.00;;;;4836967;29;20058;-76
2021/09/13 06:59:33;;;;;;;3.30;2.97;;;;;19.40;99749.00;;;;4836941;29;20054;-78
2021/09/13 07:02:02;;;;;;;80.80;30.73;;;;;19.40;99757.00;;;;4837011;29;20072;-77
2021/09/13 07:04:31;;;;;;;0.60;0.60;;;;;19.40;99734.00;;;;4837499;29;20133;-76
2021/09/13 07:07:00;;;;;;;57.55;51.42;;;;;19.40;99727.00;;;;4835867;29;20068;-78
2021/09/13 07:09:29;;;;;;;0.00;0.00;;;;;19.40;99731.00;;;;4836560;29;20136;-78
2021/09/13 07:11:58;;;;;;;549.22;140.18;;;;;19.50;99728.00;;;;4836607;29;20522;-77
2021/09/13 07:14:27;;;;;;;168.10;151.43;;;;;19.60;99732.00;;;;4837001;29;20721;-79
2021/09/13 07:16:55;;;;;;;0.30;0.30;;;;;19.80;99733.00;;;;4837003;29;20066;-78
2021/09/13 07:19:24;;;;;;;7.80;7.30;;;;;19.70;99725.00;;;;4837208;29;20114;-78
2021/09/13 07:21:53;;;;;;;5.97;5.53;;;;;19.80;99738.00;;;;4837589;29;20061;-77
2021/09/13 07:24:22;;;;;;;2.08;1.92;;;;;19.80;99719.00;;;;4839206;29;20438;-77
2021/09/13 07:26:51;;;;;;;3.78;3.28;;;;;19.80;99738.00;;;;4836841;29;20069;-77
2021/09/13 07:29:20;;;;;;;4.28;3.60;;;;;19.70;99740.00;;;;4836254;29;20061;-76
2021/09/13 07:31:49;;;;;;;0.60;0.60;;;;;19.70;99715.00;;;;4836760;29;20057;-79
2021/09/13 07:34:18;;;;;;;4.65;4.40;;;;;19.70;99720.00;;;;4837049;29;20492;-77
2021/09/13 07:36:46;;;;;;;2.80;2.60;;;;;19.60;99743.00;;;;4836655;29;20050;-79
2021/09/13 07:39:15;;;;;;;235.43;195.75;;;;;19.50;99708.00;;;;4836298;29;20065;-78
2021/09/13 07:41:44;;;;;;;3.72;3.53;;;;;19.40;99732.00;;;;4836611;29;20050;-78
2021/09/13 07:44:13;;;;;;;0.00;0.00;;;;;19.30;99713.00;;;;4834899;29;20050;-78
2021/09/13 07:46:42;;;;;;;7.30;6.82;;;;;19.30;99742.00;;;;4836568;29;20110;-78
2021/09/13 07:49:12;;;;;;;36.45;33.17;;;;;19.20;99740.00;;;;4836211;29;20049;-77
2021/09/13 07:51:41;;;;;;;9.07;4.73;;;;;19.30;99713.00;;;;4835773;29;20403;-76
2021/09/13 07:54:11;;;;;;;5.07;3.88;;;;;19.20;99703.00;;;;4836398;29;20299;-78
2021/09/13 07:56:40;;;;;;;6.95;6.47;;;;;19.10;99716.00;;;;4836710;29;20225;-79
2021/09/13 07:59:09;;;;;;;8.15;5.55;;;;;19.10;99725.00;;;;4835840;29;20474;-77
2021/09/13 08:01:38;;;;;;;16.27;13.10;;;;;19.00;99686.00;;;;4835999;29;20053;-78
2021/09/13 08:04:11;;;;;;;0.52;0.52;;;;;19.10;99693.00;;;;4834785;29;20060;-78
2021/09/13 08:06:41;;;;;;;2.40;2.28;;;;;19.10;99686.00;;;;4835901;29;20062;-76
2021/09/13 08:09:10;;;;;;;8.52;7.20;;;;;19.10;99702.00;;;;4836290;29;20455;-78
2021/09/13 08:11:39;;;;;;;5.30;5.00;;;;;19.00;99706.00;;;;4834206;29;20050;-75
2021/09/13 08:14:07;;;;;;;82.72;75.95;;;;;19.00;99707.00;;;;4835558;29;20061;-77
2021/09/13 08:16:36;;;;;;;18.95;17.77;;;;;19.00;99689.00;;;;4835384;29;20046;-76
2021/09/13 08:19:05;;;;;;;67.05;27.10;;;;;19.00;99702.00;;;;4835503;29;20054;-76
2021/09/13 08:21:37;;;;;;;0.00;0.00;;;;;18.90;99693.00;;;;4836167;29;20065;-78
2021/09/13 08:24:07;;;;;;;2.33;1.80;;;;;18.90;99660.00;;;;4835976;29;20081;-77
2021/09/13 08:26:36;;;;;;;2.38;2.28;;;;;18.90;99672.00;;;;4835672;29;20064;-77
2021/09/13 08:29:06;;;;;;;0.88;0.88;;;;;18.90;99690.00;;;;4835725;29;20054;-78
2021/09/13 08:31:35;;;;;;;28.23;25.77;;;;;19.00;99691.00;;;;4835575;29;20252;-76
2021/09/13 08:34:04;;;;;;;13.70;7.25;;;;;18.90;99668.00;;;;4836014;29;20767;-78
2021/09/13 08:36:33;;;;;;;9.27;8.00;;;;;19.10;99651.00;;;;4835170;29;20556;-79
2021/09/13 08:39:02;;;;;;;577.35;175.35;;;;;19.20;99650.00;;;;4835877;29;20046;-78
2021/09/13 08:41:32;;;;;;;24.23;22.38;;;;;19.10;99671.00;;;;4835465;29;20050;-78
2021/09/13 08:44:02;;;;;;;14.98;14.15;;;;;19.10;99687.00;;;;4835428;29;20096;-78
2021/09/13 08:46:44;;;;;;;0.60;0.60;;;;;19.00;99682.00;;;;4835990;29;20057;-76
2021/09/13 08:49:32;;;;;;;0.30;0.30;;;;;18.90;99673.00;;;;4835757;29;20058;-77
2021/09/13 08:52:04;;;;;;;0.00;0.00;;;;;19.00;99694.00;;;;4835713;29;20058;-78
2021/09/13 08:54:38;;;;;;;40.95;37.33;;;;;19.00;99664.00;;;;4836058;29;20095;-76
2021/09/13 08:57:08;;;;;;;398.38;93.07;;;;;19.00;99687.00;;;;4835852;29;20054;-76
2021/09/13 08:59:39;;;;;;;14.88;4.63;;;;;19.00;99666.00;;;;4835635;29;20054;-77
2021/09/13 09:02:07;;;;;;;3.40;2.70;;;;;19.00;99664.00;;;;4834895;29;20054;-78
2021/09/13 09:04:55;;;;;;;1.35;1.25;;;;;19.10;99640.00;;;;4835396;29;20065;-77
2021/09/13 09:07:27;;;;;;;24.13;22.23;;;;;19.20;99677.00;;;;4835104;29;20058;-78
2021/09/13 09:10:18;;;;;;;0.88;0.82;;;;;19.30;99643.00;;;;4834654;29;20119;-78
2021/09/13 09:13:12;;;;;;;0.43;0.43;;;;;19.20;99667.00;;;;4835059;29;20088;-77
2021/09/13 09:16:02;;;;;;;0.57;0.57;;;;;19.20;99654.00;;;;4837422;29;20064;-78
2021/09/13 09:18:43;;;;;;;0.10;0.10;;;;;19.40;99681.00;;;;4839169;29;20060;-78
2021/09/13 09:21:14;;;;;;;1.38;0.73;;;;;19.60;99662.00;;;;4838404;29;20061;-78
2021/09/13 09:24:09;;;;;;;4.77;4.37;;;;;19.60;99655.00;;;;4839061;29;20541;-78
2021/09/13 09:26:38;;;;;;;5.68;3.90;;;;;19.70;99653.00;;;;4839143;29;20070;-78
2021/09/13 09:29:25;;;;;;;5.07;3.58;;;;;19.90;99652.00;;;;4838563;29;20046;-79
2021/09/13 09:31:57;;;;;;;12.55;4.15;;;;;20.10;99619.00;;;;4838572;29;20053;-79
2021/09/13 09:34:29;;;;;;;7.18;2.08;;;;;20.20;99617.00;;;;4838770;29;20056;-77
2021/09/13 09:36:58;;;;;;;0.70;0.70;;;;;20.30;99642.00;;;;4838910;29;20050;-79
2021/09/13 09:39:33;;;;;;;5.38;3.45;;;;;20.50;99623.00;;;;4838515;29;20065;-79
2021/09/13 09:42:04;;;;;;;121.60;33.97;;;;;20.50;99609.00;;;;4838067;29;20064;-78
2021/09/13 09:44:33;;;;;;;15.40;14.43;;;;;20.50;99610.00;;;;4837956;29;20115;-78
2021/09/13 09:47:06;;;;;;;2.90;2.35;;;;;20.50;99614.00;;;;4838206;29;20061;-77
2021/09/13 09:49:42;;;;;;;12.88;6.65;;;;;20.60;99631.00;;;;4838035;29;20612;-77
2021/09/13 09:52:12;;;;;;;159.07;26.38;;;;;20.70;99620.00;;;;4838269;29;20084;-79
2021/09/13 09:54:41;;;;;;;194.35;99.15;;;;;20.80;99638.00;;;;4836280;29;20061;-78
2021/09/13 09:57:53;;;;;;;16.45;5.60;;;;;20.90;99653.00;;;;4836804;29;20057;-77
2021/09/13 10:00:27;;;;;;;45.08;40.75;;;;;20.80;99669.00;;;;4838536;29;20058;-77
2021/09/13 10:02:57;;;;;;;6.95;6.35;;;;;20.80;99639.00;;;;4837326;29;20553;-80
2021/09/13 10:05:29;;;;;;;22.52;15.32;;;;;20.60;99629.00;;;;4838271;29;20066;-76
2021/09/13 10:07:58;;;;;;;34.45;30.75;;;;;20.50;99640.00;;;;4838258;29;20468;-79
2021/09/13 10:10:30;;;;;;;14.50;8.70;;;;;20.50;99642.00;;;;4838913;29;20061;-76
2021/09/13 10:13:01;;;;;;;281.85;167.68;;;;;20.70;99650.00;;;;4839684;29;20050;-80
2021/09/13 10:15:30;;;;;;;9.15;4.78;;;;;20.70;99672.00;;;;4840255;29;20057;-78
2021/09/13 10:18:00;;;;;;;26.05;18.98;;;;;20.60;99643.00;;;;4838230;29;20054;-78
2021/09/13 10:20:29;;;;;;;10.57;9.90;;;;;20.90;99702.00;;;;4837082;29;20053;-76
2021/09/13 10:22:58;;;;;;;5.88;5.32;;;;;21.40;99715.00;;;;4838367;29;20441;-78
2021/09/13 10:25:32;;;;;;;9.05;8.48;;;;;21.00;99736.00;;;;4838753;29;20422;-72
2021/09/13 10:28:06;;;;;;;2.65;2.25;;;;;20.70;99742.00;;;;4836870;29;20085;-81
2021/09/13 10:30:54;;;;;;;2.20;1.98;;;;;20.30;99747.00;;;;4837113;29;20050;-85
2021/09/13 10:33:59;;;;;;;13.60;8.65;;;;;19.80;99736.00;;;;4837294;29;20058;-80
2021/09/13 10:37:04;;;;;;;13.57;9.60;;;;;19.60;99764.00;;;;4843438;29;20054;-82
2021/09/13 10:39:52;;;;;;;13.15;12.13;;;;;19.30;99714.00;;;;4841008;29;20115;-80
2021/09/13 10:42:32;;;;;;;14.65;13.27;;;;;19.30;99695.00;;;;4837026;29;20050;-82
2021/09/13 10:45:04;;;;;;;19.20;15.30;;;;;19.20;99723.00;;;;4837243;29;20534;-79
2021/09/13 10:47:34;;;;;;;26.10;24.35;;;;;19.20;99734.00;;;;4837728;29;20103;-80
2021/09/13 10:50:19;;;;;;;18.00;15.02;;;;;19.30;99776.00;;;;4837707;29;20065;-80
2021/09/13 10:52:51;;;;;;;17.15;10.05;;;;;19.30;99805.00;;;;4836955;29;20078;-80
2021/09/13 10:55:21;;;;;;;;;;;;;19.30;99822.00;;;;4838198;29;20526;-82
2021/09/13 10:57:56;;;;;;;6.28;5.75;;;;;19.10;99829.00;;;;4837092;29;19939;-79
2021/09/13 11:00:40;;;;;;;13.65;10.70;;;;;19.00;99836.00;;;;4835766;29;20050;-81
2021/09/13 11:03:35;;;;;;;0.60;0.60;;;;;19.00;99832.00;;;;4836949;29;20471;-77
2021/09/13 11:06:08;;;;;;;0.43;0.43;;;;;19.00;99846.00;;;;4836437;29;20061;-82
2021/09/13 11:08:38;;;;;;;220.02;46.97;;;;;19.00;99876.00;;;;4836987;29;20098;-81
2021/09/13 11:11:13;;;;;;;0.60;0.50;;;;;18.90;99900.00;;;;4836670;29;20050;-81
2021/09/13 11:13:44;;;;;;;0.00;0.00;;;;;18.90;99878.00;;;;4836608;29;20133;-78
2021/09/13 11:16:17;;;;;;;0.00;0.00;;;;;18.90;99879.00;;;;4837035;29;20069;-81
2021/09/13 11:18:48;;;;;;;18.17;11.70;;;;;18.80;99877.00;;;;4836170;29;20062;-79
2021/09/13 11:21:31;;;;;;;21.15;7.35;;;;;18.60;99919.00;;;;4836642;29;20054;-81
2021/09/13 11:24:05;;;;;;;26.13;24.23;;;;;18.60;99905.00;;;;4836597;29;20106;-81
2021/09/13 11:26:41;;;;;;;321.55;124.03;;;;;18.60;99940.00;;;;4836455;29;20529;-80
2021/09/13 11:29:24;;;;;;;57.47;52.50;;;;;18.50;99919.00;;;;4836363;29;20057;-79
2021/09/13 11:32:07;;;;;;;1102.95;592.65;;;;;18.50;99846.00;;;;4836363;29;20050;-80
2021/09/13 11:34:36;;;;;;;1999.90;999.90;;;;;18.40;99891.00;;;;4834584;29;20053;-82
2021/09/13 11:37:26;;;;;;;0.30;0.30;;;;;18.40;99902.00;;;;4836715;29;20060;-80
2021/09/13 11:40:16;;;;;;;0.95;0.85;;;;;18.40;99901.00;;;;4835786;29;20089;-81
2021/09/13 11:42:45;;;;;;;26.77;11.63;;;;;18.40;99928.00;;;;4836240;29;20587;-79
2021/09/13 11:45:16;;;;;;;7.28;3.92;;;;;18.40;99922.00;;;;4836015;29;20054;-81
2021/09/13 11:47:54;;;;;;;3.35;1.88;;;;;18.40;99951.00;;;;4836377;29;20054;-83
2021/09/13 11:50:23;;;;;;;1.80;0.70;;;;;18.50;99967.00;;;;4834509;29;20058;-80
2021/09/13 11:52:52;;;;;;;0.00;0.00;;;;;18.50;99963.00;;;;4836565;29;20511;-81
2021/09/13 11:55:23;;;;;;;0.00;0.00;;;;;18.50;99973.00;;;;4835905;29;20857;-80
2021/09/13 11:57:57;;;;;;;5.45;4.40;;;;;18.40;99986.00;;;;4836158;29;20054;-81
2021/09/13 12:00:38;;;;;;;4.55;3.80;;;;;18.40;99985.00;;;;4836100;29;20064;-83
2021/09/13 12:03:09;;;;;;;0.90;0.85;;;;;18.40;99975.00;;;;4836839;29;20065;-77
2021/09/13 12:05:43;;;;;;;0.00;0.00;;;;;18.40;99981.00;;;;4835729;29;20093;-83
2021/09/13 12:08:22;;;;;;;0.00;0.00;;;;;18.30;100003.00;;;;4835656;29;20153;-80
2021/09/13 12:10:52;;;;;;;0.00;0.00;;;;;18.30;100002.00;;;;4835657;29;20054;-79
2021/09/13 12:13:25;;;;;;;0.00;0.00;;;;;18.30;99987.00;;;;4835704;29;20082;-82
2021/09/13 12:15:56;;;;;;;24.98;10.82;;;;;18.30;99990.00;;;;4835641;29;21096;-80
2021/09/13 12:18:30;;;;;;;16.80;9.68;;;;;18.40;100026.00;;;;4835994;29;20060;-80
2021/09/13 12:20:59;;;;;;;22.63;10.77;;;;;18.40;100013.00;;;;4836268;29;20049;-82
2021/09/13 12:23:33;;;;;;;28.98;13.35;;;;;18.40;100017.00;;;;4836270;29;20046;-83
2021/09/13 12:26:06;;;;;;;23.08;9.60;;;;;18.40;100053.00;;;;4836187;29;20145;-79
2021/09/13 12:28:36;;;;;;;13.07;11.27;;;;;18.40;100078.00;;;;4835171;29;20053;-82